createdAt,value
2018-06-14T00:00:35.690Z,101259.11
2018-06-14T00:03:04.169Z,101258.41
2018-06-14T00:05:32.516Z,101257.52
2018-06-14T00:08:00.876Z,101253.52
2018-06-14T00:10:29.235Z,101260.18
2018-06-14T00:12:57.616Z,101250.02
2018-06-14T00:15:25.930Z,101252.05
2018-06-14T00:17:54.234Z,101241.39
2018-06-14T00:20:22.567Z,101240.34
2018-06-14T00:22:50.890Z,101240.33
2018-06-14T00:25:19.238Z,101243.68
2018-06-14T00:27:47.655Z,101238.52
2018-06-14T00:30:15.981Z,101242.15
2018-06-14T00:32:44.421Z,101238.16
2018-06-14T00:35:12.764Z,101240.33
2018-06-14T00:37:41.043Z,101245.59
2018-06-14T00:40:09.389Z,101232.42
2018-06-14T00:42:37.748Z,101233.69
2018-06-14T00:45:06.080Z,101237.17
2018-06-14T00:47:34.456Z,101235.92
2018-06-14T00:50:02.827Z,101239.70
2018-06-14T00:52:31.132Z,101238.38
2018-06-14T00:54:59.550Z,101237.74
2018-06-14T00:57:29.351Z,101235.57
2018-06-14T00:59:57.947Z,101239.70
2018-06-14T01:02:26.748Z,101244.34
2018-06-14T01:04:55.068Z,101245.67
2018-06-14T01:07:23.431Z,101248.68
2018-06-14T01:09:51.768Z,101250.50
2018-06-14T01:12:20.079Z,101246.02
2018-06-14T01:14:48.455Z,101244.97
2018-06-14T01:17:16.825Z,101240.95
2018-06-14T01:19:45.144Z,101245.51
2018-06-14T01:22:13.450Z,101242.26
2018-06-14T01:24:41.931Z,101239.59
2018-06-14T01:27:11.316Z,101243.59
2018-06-14T01:29:39.888Z,101237.08
2018-06-14T01:32:08.218Z,101232.73
2018-06-14T01:34:36.555Z,101236.66
2018-06-14T01:37:04.939Z,101235.27
2018-06-14T01:39:33.293Z,101237.86
2018-06-14T01:42:02.267Z,101232.40
2018-06-14T01:44:30.631Z,101235.38
2018-06-14T01:46:58.980Z,101231.17
2018-06-14T01:49:27.286Z,101231.45
2018-06-14T01:51:56.335Z,101236.92
2018-06-14T01:54:24.647Z,101237.76
2018-06-14T01:56:54.075Z,101237.90
2018-06-14T01:59:22.439Z,101224.39
2018-06-14T02:01:50.967Z,101232.72
2018-06-14T02:04:19.345Z,101237.97
2018-06-14T02:06:47.699Z,101240.31
2018-06-14T02:09:16.021Z,101239.12
2018-06-14T02:11:44.423Z,101240.94
2018-06-14T02:14:12.778Z,101241.78
2018-06-14T02:16:41.191Z,101233.59
2018-06-14T02:19:09.671Z,101237.09
2018-06-14T02:21:38.015Z,101235.06
2018-06-14T02:24:06.371Z,101234.50
2018-06-14T02:26:34.771Z,101229.17
2018-06-14T02:29:03.203Z,101233.30
2018-06-14T02:31:31.624Z,101221.93
2018-06-14T02:34:00.028Z,101226.62
2018-06-14T02:36:28.411Z,101227.78
2018-06-14T02:38:56.849Z,101232.47
2018-06-14T02:41:25.231Z,101223.16
2018-06-14T02:43:54.191Z,101229.80
2018-06-14T02:46:22.658Z,101230.30
2018-06-14T02:48:50.995Z,101223.79
2018-06-14T02:51:19.326Z,101226.62
2018-06-14T02:53:47.676Z,101220.15
2018-06-14T02:56:16.632Z,101220.15
2018-06-14T02:58:45.020Z,101222.95
2018-06-14T03:01:13.397Z,101228.62
2018-06-14T03:03:41.795Z,101225.47
2018-06-14T03:06:10.192Z,101217.34
2018-06-14T03:08:38.676Z,101216.52
2018-06-14T03:11:06.963Z,101215.81
2018-06-14T03:13:35.421Z,101214.79
2018-06-14T03:16:03.779Z,101210.06
2018-06-14T03:18:32.116Z,101204.40
2018-06-14T03:21:03.567Z,101209.13
2018-06-14T03:23:32.299Z,101211.40
2018-06-14T03:26:00.943Z,101208.53
2018-06-14T03:28:29.338Z,101204.19
2018-06-14T03:30:57.690Z,101206.36
2018-06-14T03:33:26.075Z,101208.67
2018-06-14T03:35:54.391Z,101206.01
2018-06-14T03:38:22.846Z,101200.20
2018-06-14T03:40:51.272Z,101188.45
2018-06-14T03:43:19.499Z,101199.44
2018-06-14T03:45:47.868Z,101190.13
2018-06-14T03:48:16.187Z,101192.19
2018-06-14T03:50:44.531Z,101192.19
2018-06-14T03:53:13.889Z,101199.19
2018-06-14T03:55:42.199Z,101198.48
2018-06-14T03:58:12.631Z,101199.81
2018-06-14T04:00:41.059Z,101195.83
2018-06-14T04:03:09.376Z,101195.83
2018-06-14T04:05:37.764Z,101201.39
2018-06-14T04:08:06.154Z,101206.84
2018-06-14T04:10:34.474Z,101201.32
2018-06-14T04:13:02.915Z,101201.45
2018-06-14T04:15:31.292Z,101198.94
2018-06-14T04:18:02.103Z,101201.81
2018-06-14T04:20:31.396Z,101197.19
2018-06-14T04:23:00.282Z,101192.71
2018-06-14T04:25:28.803Z,101195.72
2018-06-14T04:27:57.223Z,101190.41
2018-06-14T04:30:26.423Z,101195.02
2018-06-14T04:32:54.799Z,101201.39
2018-06-14T04:35:23.227Z,101199.44
2018-06-14T04:37:51.983Z,101196.77
2018-06-14T04:40:20.367Z,101197.36
2018-06-14T04:42:48.752Z,101198.38
2018-06-14T04:45:17.209Z,101195.58
2018-06-14T04:47:45.791Z,101192.30
2018-06-14T04:50:14.155Z,101193.34
2018-06-14T04:52:42.525Z,101190.68
2018-06-14T04:55:10.855Z,101189.49
2018-06-14T04:57:39.179Z,101190.96
2018-06-14T05:00:09.220Z,101199.30
2018-06-14T05:02:37.602Z,101191.66
2018-06-14T05:05:06.739Z,101189.00
2018-06-14T05:07:35.079Z,101191.88
2018-06-14T05:10:03.546Z,101193.06
2018-06-14T05:12:31.888Z,101191.10
2018-06-14T05:15:00.229Z,101189.11
2018-06-14T05:17:28.586Z,101189.31
2018-06-14T05:19:56.907Z,101186.86
2018-06-14T05:22:25.386Z,101186.23
2018-06-14T05:24:53.753Z,101188.25
2018-06-14T05:27:22.099Z,101190.28
2018-06-14T05:29:50.403Z,101192.31
2018-06-14T05:32:18.839Z,101183.52
2018-06-14T05:34:47.191Z,101188.70
2018-06-14T05:37:15.561Z,101185.41
2018-06-14T05:39:43.888Z,101184.77
2018-06-14T05:42:12.281Z,101186.45
2018-06-14T05:44:40.585Z,101184.14
2018-06-14T05:47:09.555Z,101182.31
2018-06-14T05:49:37.926Z,101180.50
2018-06-14T05:52:06.323Z,101183.50
2018-06-14T05:54:34.679Z,101178.19
2018-06-14T05:57:03.033Z,101179.02
2018-06-14T05:59:31.376Z,101177.05
2018-06-14T06:01:59.694Z,101178.21
2018-06-14T06:04:28.085Z,101183.25
2018-06-14T06:06:56.444Z,101179.25
2018-06-14T06:09:24.796Z,101176.59
2018-06-14T06:11:53.137Z,101180.30
2018-06-14T06:14:21.434Z,101175.32
2018-06-14T06:16:49.828Z,101178.53
2018-06-14T06:19:18.187Z,101180.07
2018-06-14T06:21:46.547Z,101171.73
2018-06-14T06:24:15.003Z,101167.28
2018-06-14T06:26:43.323Z,101165.66
2018-06-14T06:29:11.687Z,101158.56
2018-06-14T06:31:40.035Z,101159.61
2018-06-14T06:34:08.379Z,101159.95
2018-06-14T06:36:36.745Z,101156.47
2018-06-14T06:39:08.863Z,101160.66
2018-06-14T06:41:37.199Z,101152.39
2018-06-14T06:44:05.515Z,101154.11
2018-06-14T06:46:33.876Z,101152.11
2018-06-14T06:49:02.172Z,101152.31
2018-06-14T06:51:30.532Z,101159.02
2018-06-14T06:53:58.923Z,101166.22
2018-06-14T06:56:27.255Z,101167.30
2018-06-14T06:58:55.598Z,101163.95
2018-06-14T07:01:23.858Z,101161.98
2018-06-14T07:03:52.299Z,101157.34
2018-06-14T07:06:20.791Z,101158.03
2018-06-14T07:08:49.096Z,101159.02
2018-06-14T07:11:17.502Z,101155.91
2018-06-14T07:13:45.833Z,101156.11
2018-06-14T07:16:14.256Z,101154.80
2018-06-14T07:18:42.587Z,101146.16
2018-06-14T07:21:10.894Z,101146.20
2018-06-14T07:23:39.306Z,101137.61
2018-06-14T07:26:07.662Z,101144.97
2018-06-14T07:28:36.019Z,101142.15
2018-06-14T07:31:04.379Z,101145.01
2018-06-14T07:33:32.700Z,101136.22
2018-06-14T07:36:01.034Z,101141.41
2018-06-14T07:38:29.371Z,101140.11
2018-06-14T07:40:57.737Z,101145.83
2018-06-14T07:43:26.072Z,101140.53
2018-06-14T07:45:54.384Z,101135.36
2018-06-14T07:48:23.563Z,101128.88
2018-06-14T07:50:52.259Z,101133.91
2018-06-14T07:53:21.504Z,101132.92
2018-06-14T07:55:49.861Z,101124.95
2018-06-14T07:58:18.419Z,101128.61
2018-06-14T08:00:46.792Z,101129.83
2018-06-14T08:03:15.200Z,101130.02
2018-06-14T08:05:43.699Z,101135.38
2018-06-14T08:08:12.170Z,101129.06
2018-06-14T08:10:41.073Z,101126.14
2018-06-14T08:13:09.494Z,101120.99
2018-06-14T08:15:37.858Z,101116.64
2018-06-14T08:18:06.155Z,101114.84
2018-06-14T08:20:34.524Z,101113.38
2018-06-14T08:23:02.865Z,101114.24
2018-06-14T08:25:31.357Z,101117.90
2018-06-14T08:27:59.732Z,101108.92
2018-06-14T08:30:28.213Z,101111.95
2018-06-14T08:32:56.566Z,101113.28
2018-06-14T08:35:25.028Z,101115.64
2018-06-14T08:37:54.058Z,101120.81
2018-06-14T08:40:22.496Z,101117.65
2018-06-14T08:42:50.938Z,101111.84
2018-06-14T08:45:19.292Z,101113.02
2018-06-14T08:47:47.747Z,101107.70
2018-06-14T08:50:16.417Z,101102.07
2018-06-14T08:52:44.816Z,101104.58
2018-06-14T08:55:13.253Z,101105.29
2018-06-14T08:57:41.736Z,101094.75
2018-06-14T09:00:10.131Z,101094.60
2018-06-14T09:02:38.481Z,101097.10
2018-06-14T09:05:06.844Z,101086.42
2018-06-14T09:07:35.180Z,101080.39
2018-06-14T09:10:03.547Z,101080.73
2018-06-14T09:12:31.896Z,101070.38
2018-06-14T09:15:00.220Z,101073.19
2018-06-14T09:17:28.575Z,101075.03
2018-06-14T09:19:56.943Z,101081.38
2018-06-14T09:22:25.311Z,101076.37
2018-06-14T09:24:53.656Z,101073.70
2018-06-14T09:27:21.992Z,101069.52
2018-06-14T09:29:50.412Z,101071.98
2018-06-14T09:32:18.704Z,101072.33
2018-06-14T09:34:47.061Z,101070.78
2018-06-14T09:37:15.391Z,101074.63
2018-06-14T09:39:43.752Z,101080.64
2018-06-14T09:42:12.139Z,101074.61
2018-06-14T09:44:40.499Z,101069.42
2018-06-14T09:47:09.219Z,101072.94
2018-06-14T09:49:37.540Z,101074.28
2018-06-14T09:52:06.092Z,101076.95
2018-06-14T09:54:34.518Z,101078.62
2018-06-14T09:57:02.971Z,101075.73
2018-06-14T09:59:31.431Z,101076.72
2018-06-14T10:01:59.787Z,101078.55
2018-06-14T10:04:28.359Z,101071.20
2018-06-14T10:06:56.706Z,101072.53
2018-06-14T10:09:25.089Z,101067.20
2018-06-14T10:11:53.482Z,101064.91
2018-06-14T10:14:21.771Z,101068.24
2018-06-14T10:16:50.139Z,101074.60
2018-06-14T10:19:18.423Z,101073.27
2018-06-14T10:21:46.894Z,101075.13
2018-06-14T10:24:15.186Z,101069.94
2018-06-14T10:26:43.508Z,101072.64
2018-06-14T10:29:11.921Z,101070.77
2018-06-14T10:31:40.280Z,101068.59
2018-06-14T10:34:08.657Z,101066.36
2018-06-14T10:36:37.262Z,101076.54
2018-06-14T10:39:08.227Z,101067.44
2018-06-14T10:41:36.772Z,101067.02
2018-06-14T10:44:05.127Z,101057.73
2018-06-14T10:46:33.558Z,101061.02
2018-06-14T10:49:01.925Z,101060.07
2018-06-14T10:51:30.254Z,101057.51
2018-06-14T10:53:58.695Z,101058.97
2018-06-14T10:56:27.202Z,101051.38
2018-06-14T10:58:55.556Z,101051.89
2018-06-14T11:01:23.959Z,101054.50
2018-06-14T11:03:52.947Z,101053.85
2018-06-14T11:06:21.299Z,101048.11
2018-06-14T11:08:49.688Z,101048.05
2018-06-14T11:11:18.080Z,101042.27
2018-06-14T11:13:46.399Z,101041.88
2018-06-14T11:16:14.711Z,101045.13
2018-06-14T11:18:43.108Z,101041.73
2018-06-14T11:21:11.583Z,101037.98
2018-06-14T11:23:40.483Z,101033.09
2018-06-14T11:26:08.938Z,101025.80
2018-06-14T11:28:37.255Z,101023.48
2018-06-14T11:31:05.593Z,101028.35
2018-06-14T11:33:34.070Z,101015.34
2018-06-14T11:36:02.351Z,101020.72
2018-06-14T11:38:30.768Z,101027.48
2018-06-14T11:40:59.306Z,101015.53
2018-06-14T11:43:27.604Z,101007.84
2018-06-14T11:45:55.989Z,101011.22
2018-06-14T11:48:24.499Z,101015.25
2018-06-14T11:50:53.159Z,101005.84
2018-06-14T11:53:21.523Z,100998.72
2018-06-14T11:55:49.888Z,101004.33
2018-06-14T11:58:18.274Z,101006.00
2018-06-14T12:00:46.560Z,101001.86
2018-06-14T12:03:14.925Z,100997.00
2018-06-14T12:05:43.411Z,100999.05
2018-06-14T12:08:11.799Z,101007.38
2018-06-14T12:10:40.191Z,100997.01
2018-06-14T12:13:08.503Z,100992.25
2018-06-14T12:15:36.855Z,100993.34
2018-06-14T12:18:05.295Z,100992.14
2018-06-14T12:20:33.692Z,100987.05
2018-06-14T12:23:02.040Z,100977.21
2018-06-14T12:25:30.418Z,100982.52
2018-06-14T12:27:58.743Z,100978.74
2018-06-14T12:30:27.151Z,100978.69
2018-06-14T12:32:55.536Z,100970.73
2018-06-14T12:35:23.912Z,100971.91
2018-06-14T12:37:52.237Z,100968.02
2018-06-14T12:40:20.648Z,100940.02
2018-06-14T12:42:50.275Z,100974.91
2018-06-14T12:45:18.587Z,100965.24
2018-06-14T12:47:46.981Z,100961.19
2018-06-14T12:50:15.355Z,100953.70
2018-06-14T12:52:43.644Z,100948.28
2018-06-14T12:55:12.023Z,100952.77
2018-06-14T12:57:40.398Z,100948.16
2018-06-14T13:00:08.743Z,100947.83
2018-06-14T13:02:37.128Z,100945.37
2018-06-14T13:05:05.520Z,100952.52
2018-06-14T13:07:33.908Z,100953.42
2018-06-14T13:10:02.224Z,100941.30
2018-06-14T13:12:30.541Z,100940.91
2018-06-14T13:14:58.863Z,100943.17
2018-06-14T13:17:27.171Z,100935.79
2018-06-14T13:19:55.494Z,100939.06
2018-06-14T13:22:23.852Z,100940.83
2018-06-14T13:24:52.228Z,100936.55
2018-06-14T13:27:20.537Z,100936.17
2018-06-14T13:29:48.845Z,100931.56
2018-06-14T13:32:17.261Z,100933.10
2018-06-14T13:34:45.561Z,100927.44
2018-06-14T13:37:13.899Z,100928.15
2018-06-14T13:39:42.199Z,100935.13
2018-06-14T13:42:13.555Z,100927.95
2018-06-14T13:44:41.923Z,100930.55
2018-06-14T13:47:10.442Z,100929.66
2018-06-14T13:49:38.868Z,100933.30
2018-06-14T13:52:07.206Z,100932.28
2018-06-14T13:54:35.625Z,100932.19
2018-06-14T13:57:04.079Z,100926.74
2018-06-14T13:59:32.400Z,100935.38
2018-06-14T14:02:00.835Z,100932.25
2018-06-14T14:04:29.184Z,100926.36
2018-06-14T14:07:02.952Z,100931.34
2018-06-14T14:09:31.335Z,100935.77
2018-06-14T14:11:59.683Z,100932.70
2018-06-14T14:14:28.516Z,100935.70
2018-06-14T14:16:56.888Z,100934.10
2018-06-14T14:19:25.259Z,100931.16
2018-06-14T14:21:53.599Z,100929.27
2018-06-14T14:24:22.485Z,100929.52
2018-06-14T14:26:51.959Z,100924.53
2018-06-14T14:29:20.340Z,100923.89
2018-06-14T14:31:48.705Z,100924.48
2018-06-14T14:34:17.171Z,100934.92
2018-06-14T14:36:45.646Z,100928.58
2018-06-14T14:39:14.193Z,100942.40
2018-06-14T14:41:42.893Z,100940.50
2018-06-14T14:44:11.300Z,100945.66
2018-06-14T14:46:39.652Z,100949.48
2018-06-14T14:49:07.996Z,100942.82
2018-06-14T14:51:36.403Z,100945.19
2018-06-14T14:54:04.836Z,100946.91
2018-06-14T14:56:33.189Z,100947.31
2018-06-14T14:59:01.671Z,100944.45
2018-06-14T15:01:30.048Z,100945.41
2018-06-14T15:03:58.656Z,100946.09
2018-06-14T15:06:27.124Z,100953.48
2018-06-14T15:08:55.585Z,100954.58
2018-06-14T15:11:24.583Z,100957.52
2018-06-14T15:13:53.117Z,100956.73
2018-06-14T15:16:21.762Z,100958.87
2018-06-14T15:18:50.187Z,100963.81
2018-06-14T15:21:18.550Z,100970.58
2018-06-14T15:23:52.070Z,100972.46
2018-06-14T15:26:20.611Z,100965.97
2018-06-14T15:28:49.176Z,100970.03
2018-06-14T15:31:17.559Z,100968.42
2018-06-14T15:33:46.153Z,100969.47
2018-06-14T15:36:14.565Z,100980.73
2018-06-14T15:38:43.756Z,100977.93
2018-06-14T15:41:12.312Z,100984.69
2018-06-14T15:43:40.680Z,100987.48
2018-06-14T15:46:09.012Z,100994.92
2018-06-14T15:48:37.418Z,100995.20
2018-06-14T15:51:05.800Z,101003.77
2018-06-14T15:53:34.284Z,101009.38
2018-06-14T15:56:18.062Z,101012.98
2018-06-14T15:58:46.775Z,101012.05
2018-06-14T16:01:15.180Z,101009.59
2018-06-14T16:03:43.576Z,101011.41
2018-06-14T16:06:12.041Z,101015.30
2018-06-14T16:08:40.436Z,101012.80
2018-06-14T16:11:08.879Z,101012.13
2018-06-14T16:13:37.260Z,101014.97
2018-06-14T16:16:05.735Z,101014.64
2018-06-14T16:18:34.184Z,101022.66
2018-06-14T16:21:02.658Z,101014.30
2018-06-14T16:23:31.101Z,101018.31
2018-06-14T16:25:59.568Z,101024.00
2018-06-14T16:28:28.232Z,101024.33
2018-06-14T16:30:56.652Z,101032.19
2018-06-14T16:33:25.185Z,101034.53
2018-06-14T16:35:53.607Z,101035.03
2018-06-14T16:38:21.927Z,101038.17
2018-06-14T16:40:50.344Z,101039.84
2018-06-14T16:43:18.745Z,101041.03
2018-06-14T16:45:47.183Z,101034.67
2018-06-14T16:48:15.703Z,101042.53
2018-06-14T16:50:44.183Z,101051.20
2018-06-14T16:53:12.915Z,101047.05
2018-06-14T16:55:41.355Z,101049.89
2018-06-14T16:58:09.838Z,101054.91
2018-06-14T17:00:38.445Z,101055.89
2018-06-14T17:03:06.996Z,101058.57
2018-06-14T17:05:35.383Z,101055.77
2018-06-14T17:08:03.894Z,101059.23
2018-06-14T17:10:32.447Z,101050.55
2018-06-14T17:13:00.933Z,101055.44
2018-06-14T17:15:29.324Z,101057.94
2018-06-14T17:17:59.739Z,101050.59
2018-06-14T17:20:28.226Z,101062.62
2018-06-14T17:22:56.735Z,101058.61
2018-06-14T17:25:25.181Z,101060.28
2018-06-14T17:27:53.572Z,101063.46
2018-06-14T17:30:22.027Z,101065.64
2018-06-14T17:32:50.413Z,101056.11
2018-06-14T17:35:19.028Z,101054.63
2018-06-14T17:37:47.460Z,101049.95
2018-06-14T17:40:16.263Z,101050.78
2018-06-14T17:42:44.703Z,101052.30
2018-06-14T17:45:13.159Z,101046.78
2018-06-14T17:47:41.890Z,101052.92
2018-06-14T17:50:10.357Z,101058.64
2018-06-14T17:52:38.776Z,101052.62
2018-06-14T17:55:07.953Z,101054.13
2018-06-14T17:57:36.403Z,101054.97
2018-06-14T18:00:05.014Z,101055.30
2018-06-14T18:02:33.523Z,101058.31
2018-06-14T18:05:02.616Z,101056.47
2018-06-14T18:07:30.443Z,101055.80
2018-06-14T18:09:58.915Z,101061.82
2018-06-14T18:12:27.324Z,101062.99
2018-06-14T18:14:55.759Z,101063.83
2018-06-14T18:17:24.169Z,101068.17
2018-06-14T18:19:52.591Z,101069.65
2018-06-14T18:22:21.058Z,101072.33
2018-06-14T18:24:49.559Z,101073.33
2018-06-14T18:27:18.074Z,101075.50
2018-06-14T18:29:46.575Z,101075.67
2018-06-14T18:32:15.016Z,101075.67
2018-06-14T18:34:43.549Z,101077.00
2018-06-14T18:37:12.125Z,101072.69
2018-06-14T18:39:40.509Z,101075.36
2018-06-14T18:42:09.203Z,101069.81
2018-06-14T18:44:38.185Z,101071.48
2018-06-14T18:47:06.758Z,101065.97
2018-06-14T18:49:35.189Z,101071.98
2018-06-14T18:52:03.632Z,101072.99
2018-06-14T18:54:32.019Z,101078.17
2018-06-14T18:57:00.860Z,101082.02
2018-06-14T18:59:29.583Z,101081.35
2018-06-14T19:01:57.984Z,101079.68
2018-06-14T19:04:26.528Z,101083.02
2018-06-14T19:06:55.147Z,101078.51
2018-06-14T19:09:23.811Z,101082.86
2018-06-14T19:11:52.326Z,101089.05
2018-06-14T19:14:20.698Z,101090.38
2018-06-14T19:16:49.059Z,101098.08
2018-06-14T19:19:17.435Z,101099.91
2018-06-14T19:21:45.911Z,101100.08
2018-06-14T19:24:14.354Z,101098.58
2018-06-14T19:26:42.714Z,101103.77
2018-06-14T19:29:11.123Z,101101.75
2018-06-14T19:31:39.457Z,101101.09
2018-06-14T19:34:07.850Z,101099.91
2018-06-14T19:36:36.282Z,101106.09
2018-06-14T19:39:07.010Z,101103.76
2018-06-14T19:41:35.407Z,101100.91
2018-06-14T19:44:03.852Z,101107.97
2018-06-14T19:46:32.212Z,101111.98
2018-06-14T19:49:00.689Z,101113.48
2018-06-14T19:51:29.113Z,101118.00
2018-06-14T19:53:57.471Z,101116.33
2018-06-14T19:56:25.931Z,101115.66
2018-06-14T19:58:54.475Z,101126.19
2018-06-14T20:01:23.195Z,101131.20
2018-06-14T20:03:51.796Z,101129.86
2018-06-14T20:06:20.159Z,101137.89
2018-06-14T20:08:48.827Z,101137.55
2018-06-14T20:11:17.373Z,101142.39
2018-06-14T20:13:46.037Z,101141.39
2018-06-14T20:16:14.438Z,101142.22
2018-06-14T20:18:42.895Z,101142.89
2018-06-14T20:21:11.429Z,101148.58
2018-06-14T20:23:39.730Z,101147.24
2018-06-14T20:26:08.122Z,101148.58
2018-06-14T20:28:36.523Z,101145.41
2018-06-14T20:31:04.940Z,101149.58
2018-06-14T20:33:33.296Z,101149.91
2018-06-14T20:36:01.708Z,101159.63
2018-06-14T20:38:30.098Z,101157.95
2018-06-14T20:40:58.658Z,101158.77
2018-06-14T20:43:27.050Z,101157.44
2018-06-14T20:45:55.464Z,101159.27
2018-06-14T20:48:23.861Z,101158.61
2018-06-14T20:50:52.255Z,101162.30
2018-06-14T20:53:20.756Z,101163.30
2018-06-14T20:55:49.157Z,101164.96
2018-06-14T20:58:17.579Z,101158.44
2018-06-14T21:00:45.946Z,101164.30
2018-06-14T21:03:14.329Z,101161.97
2018-06-14T21:05:42.801Z,101163.48
2018-06-14T21:08:11.180Z,101169.47
2018-06-14T21:10:39.555Z,101169.49
2018-06-14T21:13:07.924Z,101168.66
2018-06-14T21:15:36.360Z,101167.64
2018-06-14T21:18:04.727Z,101175.99
2018-06-14T21:20:33.091Z,101173.99
2018-06-14T21:23:01.571Z,101178.18
2018-06-14T21:25:30.020Z,101176.00
2018-06-14T21:27:58.399Z,101176.34
2018-06-14T21:30:26.771Z,101173.50
2018-06-14T21:32:55.180Z,101174.34
2018-06-14T21:35:23.583Z,101179.02
2018-06-14T21:37:51.968Z,101177.67
2018-06-14T21:40:20.360Z,101179.50
2018-06-14T21:42:48.832Z,101182.33
2018-06-14T21:45:17.242Z,101176.00
2018-06-14T21:47:45.607Z,101178.17
2018-06-14T21:50:14.531Z,101175.84
2018-06-14T21:52:42.996Z,101180.34
2018-06-14T21:55:11.415Z,101180.99
2018-06-14T21:57:39.827Z,101174.50
2018-06-14T22:00:08.349Z,101177.00
2018-06-14T22:03:43.537Z,101170.64
2018-06-14T22:06:11.897Z,101180.50
2018-06-14T22:08:40.308Z,101182.84
2018-06-14T22:11:08.633Z,101183.34
2018-06-14T22:13:37.149Z,101183.34
2018-06-14T22:16:05.573Z,101178.98
2018-06-14T22:18:33.950Z,101180.83
2018-06-14T22:21:02.373Z,101180.66
2018-06-14T22:23:30.748Z,101183.83
2018-06-14T22:25:59.105Z,101184.67
2018-06-14T22:28:27.515Z,101185.84
2018-06-14T22:30:55.952Z,101186.34
2018-06-14T22:33:35.475Z,101184.01
2018-06-14T22:36:03.894Z,101188.18
2018-06-14T22:38:32.367Z,101192.67
2018-06-14T22:41:00.758Z,101189.52
2018-06-14T22:43:29.099Z,101188.68
2018-06-14T22:45:57.510Z,101192.02
2018-06-14T22:48:25.932Z,101194.02
2018-06-14T22:51:05.457Z,101193.50
2018-06-14T22:53:33.927Z,101193.66
2018-06-14T22:56:02.319Z,101191.48
2018-06-14T22:58:30.745Z,101184.62
2018-06-14T23:02:03.625Z,101183.78
2018-06-14T23:04:33.257Z,101178.28
2018-06-14T23:07:01.685Z,101181.61
2018-06-14T23:10:42.896Z,101180.97
2018-06-14T23:13:16.597Z,101175.05
2018-06-14T23:15:45.014Z,101173.38
2018-06-14T23:18:13.598Z,101169.53
2018-06-14T23:20:41.988Z,101173.06
2018-06-14T23:23:10.448Z,101172.72
2018-06-14T23:25:39.130Z,101175.73
2018-06-14T23:28:07.539Z,101168.21
2018-06-14T23:30:35.897Z,101170.89
2018-06-14T23:33:04.300Z,101172.88
2018-06-14T23:35:32.700Z,101175.39
2018-06-14T23:38:01.107Z,101169.88
2018-06-14T23:40:29.484Z,101167.86
2018-06-14T23:42:57.865Z,101177.20
2018-06-14T23:45:26.316Z,101177.37
2018-06-14T23:47:54.697Z,101179.70
2018-06-14T23:50:23.131Z,101177.53
2018-06-14T23:52:51.495Z,101173.03
2018-06-14T23:55:19.907Z,101176.55
2018-06-14T23:57:48.480Z,101173.02
